Conwy, United Kingdom
Current Conditions -  °F | °C
As of 4:50 AM on Tuesday 21 Oct 2014 (Local Time) from EGOV Reporting Station
Broken Clouds Broken Clouds  
Wind Chill: 57°   Ceiling: 4800
Heat Index: 57°   Visibility: 6mi
Dew Point: 52°   Wind: 30mph
Humidity: 82%   Direction: 270°W
Pressure: 29.41"   Gusts: NA
Location:  53.28°N, 3.83°W
Report Text: EGOV 210350Z 27026KT 9999 FEW018 BKN048 14/11 Q0996 BLU
Loading
Personal Weather Stations






























Interactive Weather Map
Tropical Storm Tracking
New forecast layout! Learn more

10-Day Weather Forecast

Advertisements
Track Severe Weather on mobile